Weather observations for the past three days for
Aurora, Aurora Municipal Airport
Imperial (Metric)
Date Time (cdt) Wind (mph) Vis. (mi.) Weather Sky Cond. Temperature (ºF) Relative Humidity Wind Chill (°F) Heat Index (°F) Pressure Precipitation (in)
Air Dwpt 6 hour altimeter (in) sea level (mb) 1 hr 3 hr 6 hr
Max. Min.
02 09:15 SW 7 10.00 Fair CLR 77.2 64.2 64% 79 29.91 0.0
02 08:55 SW 8 10.00 Fair CLR 75.6 63.5 66% 77 29.91 0.0
02 08:35 S 6 10.00 Fair CLR 73.6 63.1 70% 29.91 0.0
02 08:15 SW 7 10.00 Fair CLR 73.4 62.6 69% 29.92 0.0
02 07:55 S 6 10.00 Fair CLR 72 61.9 71% 29.91 0.0
02 07:35 S 8 10.00 Fair CLR 72.1 61.9 70% 29.91 0.0
02 07:15 SW 9 10.00 Fair CLR 71.8 61.7 71% 29.91 0.0
02 06:55 S 9 10.00 Fair CLR 72.1 61.7 77.4 72.1 70% 29.9 0.0
02 06:35 S 8 10.00 Fair CLR 72.5 61.3 68% 29.9 0.0
02 06:15 SW 8 10.00 Partly Cloudy SCT120 72.7 61.5 68% 29.9 0.0
02 05:55 SW 7 10.00 Partly Cloudy SCT120 72.9 61.3 67% 29.9 0.0
02 05:35 SW 7 10.00 Fair CLR 72.9 61.5 68% 29.9 0.0
02 05:15 S 8 10.00 Thunderstorm in Vicinity CLR 73.4 61.2 66% 29.9 0.0
02 04:55 S 7 10.00 Fair CLR 73.6 61.2 65% 29.89 0.0
02 04:35 S 9 10.00 Partly Cloudy SCT110 74.5 61 63% 29.89 0.0
02 04:15 S 9 10.00 Partly Cloudy SCT110 74.7 61 63% 29.89 0.0
02 03:55 S 10 10.00 Fair CLR 75 61.2 62% 77 29.89 0.0
02 03:35 S 10 10.00 Fair CLR 75.6 61.2 61% 78 29.89 0.0
02 03:15 S 10 G 16 10.00 Fair CLR 76.1 61.2 60% 78 29.89 0.0
02 02:55 S 8 10.00 Fair CLR 75.7 61.9 62% 78 29.89 0.0
02 02:35 S 8 10.00 Fair CLR 76.1 61.9 62% 78 29.89 0.0
02 02:15 S 9 10.00 Fair CLR 76.3 62.2 62% 78 29.89 0.0
02 01:55 S 8 10.00 Fair CLR 76.6 62.1 61% 78 29.89 0.0
02 01:35 S 10 10.00 Fair CLR 77.2 62.2 60% 79 29.89 0.0
02 01:15 S 10 10.00 Fair CLR 77.4 62.6 61% 79 29.89 0.0
02 00:55 S 10 10.00 Fair CLR 77.2 62.8 88.7 77 61% 79 29.89 0.0
02 00:35 S 10 10.00 Fair CLR 77.7 63.1 61% 79 29.89 0.0
02 00:15 S 9 10.00 Fair CLR 78.1 63.3 61% 80 29.89 0.0
01 23:55 S 10 10.00 Fair CLR 78.1 64.2 63% 80 29.89 0.0
01 23:35 S 8 10.00 Partly Cloudy SCT110 78.6 64.9 63% 80 29.89 0.0
01 23:15 S 7 10.00 Partly Cloudy SCT110 79.7 65.7 62% 82 29.89 0.0
01 22:55 S 7 10.00 Fair CLR 80.6 66.6 62% 83 29.89 0.0
01 22:35 S 8 10.00 Fair CLR 82.4 66.7 59% 85 29.89 0.0
01 22:15 S 8 10.00 Fair CLR 82.2 70.3 67% 86 29.89 0.0
01 21:55 S 5 10.00 Fair CLR 79.7 75.2 86% 84 29.89 0.0
01 21:35 SE 7 10.00 Fair CLR 79.3 76.1 90% 84 29.88 0.0
01 21:15 SE 5 10.00 Fair CLR 79.9 76.8 90% 85 29.87 0.0
01 20:55 SE 6 10.00 Fair CLR 80.4 77.7 92% 87 29.87 0.0
01 20:35 E 6 10.00 Fair CLR 81 76.8 87% 88 29.86 0.0
01 20:15 E 5 10.00 Fair CLR 81.9 77 85% 90 29.86 0.0
01 19:55 E 5 10.00 Fair CLR 83.7 77.2 81% 93 29.86 0.0
01 19:35 E 3 10.00 Fair CLR 85.1 76.6 76% 95 29.86 0.0
01 19:15 Calm 10.00 Fair CLR 86.9 76.5 71% 98 29.86 0.0
01 18:55 E 5 10.00 Fair CLR 90 75.9 91.8 86.4 63% 102 29.86 0.0
01 18:35 Calm 10.00 Fair CLR 90 76.1 64% 102 29.87 0.0
01 18:15 Calm 10.00 Fair CLR 90.3 75 61% 101 29.87 0.0
01 17:55 Calm 10.00 Fair CLR 90.7 75 60% 101 29.89 0.0
01 17:35 Calm 10.00 Fair CLR 91.4 74.1 57% 101 29.89 0.0
01 17:15 S 3 10.00 Fair CLR 91.8 72.9 54% 100 29.89 0.0
01 16:55 S 5 10.00 Fair CLR 91.4 72.7 54% 100 29.9 0.0
01 16:35 S 7 10.00 Fair CLR 91 72.5 55% 99 29.9 0.0
01 16:15 S 6 10.00 Partly Cloudy SCT120 90.7 72.9 56% 99 29.91 0.0
01 15:55 S 7 10.00 Partly Cloudy SCT120 90.9 72.7 55% 99 29.91 0.0
01 15:35 S 7 10.00 Partly Cloudy SCT120 90.7 73.6 57% 100 29.92 0.0
01 15:15 SW 5 10.00 Fair CLR 89.8 72.5 57% 97 29.92 0.0
01 14:55 SW 7 10.00 Fair CLR 89.2 72 57% 96 29.93 0.0
01 14:35 S 8 10.00 Fair CLR 89.2 71.4 56% 96 29.94 0.0
01 14:15 S 6 10.00 Fair CLR 88.2 71.2 57% 94 29.95 0.0
01 13:55 S 3 10.00 Fair CLR 87.6 70.5 57% 93 29.94 0.0
01 13:35 SE 5 10.00 Fair CLR 87.4 71.2 59% 93 29.95 0.0
01 13:15 SE 7 10.00 Fair CLR 86.9 70.7 59% 92 29.95 0.0
01 12:55 E 9 10.00 Fair CLR 87.1 71.1 87.1 70 59% 93 29.96 0.0
01 12:35 E 8 10.00 Fair CLR 86.9 70.7 59% 92 29.96 0.0
01 12:15 E 7 10.00 Fair CLR 85.6 70.5 61% 91 29.96 0.0
01 11:55 E 6 10.00 Fair CLR 85.3 70.7 62% 90 29.96 0.0
01 11:35 NE 7 10.00 Fair CLR 83.7 71.2 66% 89 29.95 0.0
01 11:15 N 6 10.00 Fair CLR 83.3 71.1 67% 88 29.95 0.0
01 10:55 N 3 10.00 Fair CLR 81.5 70.2 69% 85 29.95 0.0
01 10:35 N 5 10.00 Fair CLR 80.4 70.5 72% 84 29.95 0.0
01 10:15 NE 3 10.00 Fair CLR 79.2 70.7 75% 82 29.95 0.0
01 09:55 N 6 10.00 Fair CLR 78.4 69.6 74% 81 29.95 0.0
01 09:35 N 3 10.00 Fair CLR 77.7 69.3 75% 80 29.95 0.0
01 09:15 NW 5 10.00 Fair CLR 76.1 68.9 78% 77 29.95 0.0
01 08:55 W 3 10.00 Fair CLR 76.3 68.4 77% 78 29.96 0.0
01 08:35 SW 3 10.00 Fair CLR 74.1 67.5 80% 29.96 0.0
01 08:15 Calm 10.00 Fair CLR 72.3 67.5 85% 29.96 0.0
01 07:55 Calm 10.00 Fair CLR 70 67.1 91% 29.96 0.0
01 07:35 SW 5 10.00 Fair CLR 70.9 66.2 85% 29.96 0.0
01 07:15 S 3 10.00 Fair CLR 71.1 65.7 83% 29.94 0.0
01 06:55 Calm 10.00 Fair CLR 72.3 65.8 73.6 70.2 80% 29.94 0.0
01 06:35 S 5 10.00 Fair CLR 71.1 67.1 87% 29.93 0.0
01 06:15 SE 5 10.00 Fair CLR 70.7 68.2 92% 29.92 0.0
01 05:55 Calm 10.00 Fair CLR 71.1 69.1 94% 29.93 0.0
01 05:35 SE 3 10.00 Partly Cloudy SCT110 72 68.9 90% 29.93 0.0
01 05:15 S 3 10.00 Partly Cloudy SCT110 72.7 68.9 88% 29.93 0.0
01 04:55 SE 5 10.00 Partly Cloudy SCT110 71.6 70.2 95% 29.93 0.0
01 04:35 SE 3 10.00 Mostly Cloudy BKN110 71.6 70.2 95% 29.94 0.0
01 04:15 Calm 10.00 Mostly Cloudy BKN100 71.6 70.3 96% 29.95 0.0
01 03:55 Calm 10.00 Partly Cloudy SCT100 71.6 70.2 95% 29.95 0.0
01 03:35 E 3 10.00 Fair CLR 71.6 70.3 96% 29.95 0.0
01 03:15 NE 5 10.00 Fair CLR 71.8 70.7 96% 29.95 0.0
01 02:55 Calm 10.00 Partly Cloudy SCT100 72.5 71.1 95% 29.95 0.0
01 02:35 NE 3 10.00 Partly Cloudy SCT100 72 70.9 96% 29.95 0.0
01 02:15 NE 3 10.00 Partly Cloudy SCT100 73 71.6 95% 29.95 0.0
01 01:55 Calm 10.00 Fair CLR 73 71.6 95% 29.96 0.0
01 01:35 E 5 10.00 Fair CLR 73 71.8 96% 29.96 0.0
01 01:15 NE 3 10.00 Partly Cloudy SCT100 73.4 72.1 96% 29.97 0.0
01 00:55 NE 6 10.00 Partly Cloudy SCT100 73.4 72.1 86.9 72.9 96% 29.97 0.0
01 00:35 NE 5 10.00 Partly Cloudy SCT100 73.4 72 95% 29.97 0.0
01 00:15 NE 5 10.00 Partly Cloudy SCT110 73.6 72.5 96% 29.97 0.0
31 23:55 N 5 10.00 Mostly Cloudy BKN110 73.9 72.5 95% 29.98 0.0
31 23:35 Calm 10.00 Overcast OVC110 74.1 72.7 95% 29.98 0.0
31 23:15 NE 3 10.00 Overcast OVC110 73.9 72.5 95% 29.98 0.0
31 22:55 N 3 10.00 Mostly Cloudy BKN110 73.6 72.5 96% 29.98 0.0
31 22:35 N 3 10.00 Partly Cloudy SCT110 73.9 72.1 94% 29.98 0.0
31 22:15 Calm 10.00 Fair CLR 75.4 72.3 90% 75 29.97 0.0
31 21:55 E 3 10.00 Fair CLR 75.2 72.7 92% 74 29.97 0.0
31 21:35 NE 3 10.00 Fair CLR 76.5 72 86% 77 29.96 0.0
31 21:15 E 3 10.00 Fair CLR 76.6 72.1 86% 78 29.96 0.0
31 20:55 E 3 10.00 Fair CLR 76.6 72.5 87% 78 29.95 0.0
31 20:35 E 3 10.00 Rain CLR 77.7 72.7 85% 80 29.95 0.0
31 20:15 E 3 10.00 Fair CLR 79.7 73.4 81% 84 29.94 0.0
31 19:55 E 3 10.00 Fair CLR 82 73.2 75% 88 29.94 0.0
31 19:35 Calm 10.00 Fair CLR 83.8 73.6 71% 91 29.95 0.0
31 19:15 Calm 10.00 Fair CLR 85.3 72.3 65% 92 29.95 0.0
31 18:35 SE 3 10.00 Fair CLR 88 70.3 56% 93 29.95 0.0
31 18:15 E 3 10.00 Fair CLR 88.5 69.8 54% 94 29.95 0.0
31 17:55 SE 3 10.00 Fair CLR 88.7 70.2 54% 94 29.95 0.0
31 17:35 Calm 10.00 Fair CLR 89.2 68.5 51% 93 29.96 0.0
31 17:15 S 5 10.00 Fair CLR 89.2 68.5 51% 93 29.96 0.0
31 16:55 S 5 10.00 Fair CLR 88.9 68.5 51% 93 29.97 0.0
31 16:35 SW 3 10.00 Fair CLR 88.9 68.7 51% 93 29.97 0.0
31 16:15 SW 3 10.00 Fair CLR 88.9 67.8 50% 93 29.97 0.0
31 15:55 Calm 10.00 Fair CLR 88.7 66 47% 91 29.97 0.0
31 15:35 Calm 10.00 Fair CLR 88 68.4 52% 92 29.98 0.0
31 15:15 Calm 10.00 Fair CLR 87.4 68.7 54% 91 29.98 0.0
31 14:55 Calm 10.00 Fair CLR 86.7 66.4 51% 89 29.99 0.0
31 14:35 W 3 10.00 Fair CLR 86.9 65.5 49% 89 29.99 0.0
31 14:15 W 3 10.00 Fair CLR 86.5 67.6 53% 90 29.99 0.0
31 13:55 W 6 10.00 Fair CLR 86.5 68.5 55% 90 29.99 0.0
31 13:35 NW 3 10.00 Fair CLR 85.8 66.9 53% 89 29.99 0.0
31 13:15 SW 5 10.00 Fair CLR 85.1 66.2 53% 87 30 0.0
31 12:55 Calm 10.00 Fair CLR 84.7 66.6 84.7 69.6 55% 87 30 0.0
31 12:35 SW 3 10.00 Fair CLR 83.3 69.1 62% 87 30 0.0
31 12:15 Calm 10.00 Fair CLR 82 67.8 62% 85 30 0.0
31 11:55 Calm 10.00 Fair CLR 80.8 68 65% 84 29.99 0.0
31 11:35 Calm 10.00 Fair CLR 79.9 68.9 69% 83 29.99 0.0
31 11:15 N 3 10.00 Fair CLR 78.4 67.5 69% 81 29.98 0.0
31 10:55 N 7 10.00 Fair CLR 78.3 68.2 71% 80 29.97 0.0
31 10:35 N 9 10.00 Fair CLR 77.4 67.6 72% 79 29.97 0.0
31 10:15 N 6 10.00 Fair CLR 76.6 67.1 72% 78 29.97 0.0
31 09:55 N 7 10.00 Fair CLR 75 66.4 75% 76 29.97 0.0
31 09:35 N 7 10.00 Fair CLR 73.9 66.4 77% 29.97 0.0
31 09:15 N 9 10.00 Fair CLR 73 65.8 78% 29.96 0.0
31 08:55 N 8 10.00 Fair CLR 71.8 65.1 80% 29.96 0.0
31 08:35 NW 5 10.00 Fair CLR 70.5 64.8 82% 29.95 0.0
31 08:15 N 6 10.00 Partly Cloudy SCT120 69.8 64.6 84% 29.95 0.0
31 07:55 N 9 10.00 Partly Cloudy SCT120 69.8 66.2 88% 29.93 0.0
31 07:35 N 9 10.00 Fair CLR 70.3 67.1 90% 29.96 0.0
31 07:15 NE 3 10.00 Light Drizzle SCT120 70.7 66.9 88% 29.96 0.0
31 06:55 Calm 10.00 Light Rain SCT120 72.7 65.3 75.7 72.7 78% 29.97 0.0
31 06:35 W 10 G 18 10.00 Light Rain CLR 73.8 65.3 75% 29.99 0.0
31 06:15 W 13 G 22 10.00 Fair CLR 74.3 66 75% 29.97 0.0
31 05:55 W 13 10.00 Fair CLR 74.3 67.8 80% 29.94 0.0
31 05:35 W 12 G 16 10.00 Fair CLR 74.1 69.3 85% 29.92 0.0
31 05:15 W 7 10.00 Fair CLR 73.9 70.2 88% 29.9 0.0
31 04:55 W 7 10.00 Fair CLR 74.7 70.9 88% 29.9 0.0
31 04:35 SW 7 10.00 Thunderstorm in Vicinity CLR 74.8 70.9 88% 29.9 0.0
31 04:15 W 6 10.00 Fair CLR 74.5 71.1 89% 29.89 0.0
31 03:55 W 5 10.00 Fair CLR 73.6 71.2 92% 29.89 0.0
31 03:35 W 6 10.00 Fair CLR 73 71.1 94% 29.88 0.0
31 03:15 W 5 10.00 Fair CLR 73.2 70.9 92% 29.87 0.0
31 02:55 SW 6 10.00 Fair CLR 73.8 70.9 91% 29.88 0.0
31 02:35 SW 6 10.00 Fair CLR 74.3 70.9 89% 29.88 0.0
31 02:15 SW 5 10.00 Fair CLR 74.7 71.4 90% 29.87 0.0
31 01:55 SW 5 10.00 Fair CLR 74.1 71.8 92% 29.87 0.0
31 01:35 S 6 10.00 Fair CLR 75.4 71.8 89% 75 29.88 0.0
31 01:15 S 3 10.00 Fair CLR 74.3 71.6 91% 29.88 0.0
31 00:55 S 5 10.00 Fair CLR 73.2 71.2 86 72.5 94% 29.87 0.0
31 00:35 S 6 10.00 Fair CLR 72.9 71.1 94% 29.86 0.0
31 00:15 Calm 10.00 Fair CLR 73.6 71.2 92% 29.85 0.0
30 23:55 W 3 10.00 Fair CLR 73.4 71.6 94% 29.85 0.0
30 23:35 Calm 10.00 Fair CLR 74.3 71.8 92% 29.85 0.0
30 23:15 W 3 10.00 Fair CLR 73.4 71.8 95% 29.85 0.0
30 22:55 Calm 5.00 Fog/Mist CLR 75.4 72.5 91% 75 29.85 0.0
30 22:35 W 5 10.00 Fair CLR 75.9 72.5 89% 76 29.86 0.0
30 22:15 Calm 10.00 Fair CLR 75 72.7 92% 74 29.86 0.0
30 21:55 W 3 10.00 Fair CLR 76.1 73.2 91% 76 29.86 0.0
30 21:35 Calm 10.00 Fair CLR 77 73.4 89% 78 29.86 0.0
30 21:15 W 3 10.00 Fair CLR 76.3 73.6 91% 76 29.86 0.0
30 20:55 W 6 10.00 Fair CLR 76.8 74.3 92% 78 29.85 0.0
30 20:35 W 3 10.00 Fair CLR 79.7 74.7 85% 84 29.84 0.0
30 20:15 SW 3 10.00 Fair CLR 81.7 73.8 77% 87 29.84 0.0
30 19:55 Calm 10.00 Fair CLR 82.4 75.6 80% 90 29.84 0.0
30 19:35 Calm 10.00 Light Rain CLR 84.4 75.4 74% 93 29.84 0.0
30 19:15 Calm 10.00 Fair CLR 85.6 74.7 70% 94 29.84 0.0
30 18:55 Calm 10.00 Fair CLR 86.7 74.1 89.6 85.8 66% 95 29.84 0.0
30 18:35 W 3 10.00 Fair CLR 88.2 71.6 58% 95 29.83 0.0
30 18:15 Calm 10.00 Fair CLR 89.2 71.8 56% 96 29.83 0.0
30 17:55 Calm 10.00 Fair CLR 89.1 70.3 54% 95 29.83 0.0
30 17:35 SW 5 10.00 Fair CLR 89.1 70.9 55% 95 29.83 0.0
30 17:15 S 6 10.00 Fair CLR 88.9 70 54% 94 29.83 0.0
30 16:55 S 8 10.00 Fair CLR 88.7 70.5 55% 94 29.82 0.0
30 16:15 S 9 10.00 Fair CLR 87.6 72 60% 94 29.83 0.0
30 15:55 S 9 10.00 Fair CLR 87.8 72.1 60% 95 29.83 0.0
30 15:35 S 9 10.00 Fair CLR 88.3 72.5 60% 96 29.83 0.0
30 15:15 S 10 10.00 Fair CLR 88.5 73 60% 96 29.83 0.0
30 14:55 S 7 10.00 Fair CLR 88.5 72.7 60% 96 29.83 0.0
30 14:35 SE 5 10.00 Fair CLR 87.1 72 61% 94 29.83 0.0
30 14:15 SE 6 10.00 Fair CLR 88.3 69.4 54% 93 29.83 0.0
30 13:55 Calm 10.00 Fair CLR 86.9 69.4 56% 91 29.83 0.0
30 13:35 Calm 10.00 Fair CLR 86.9 68.9 55% 91 29.83 0.0
30 13:15 W 3 10.00 Fair CLR 86 70.3 60% 91 29.84 0.0
30 12:55 NW 8 10.00 Fair CLR 86.4 69.3 87.6 72.7 57% 91 29.83 0.0
30 12:35 NW 9 10.00 Fair CLR 86.9 70.2 58% 92 29.82 0.0
30 12:15 NW 7 10.00 Fair CLR 85.3 68.7 58% 89 29.84 0.0
30 11:55 W 6 10.00 Fair CLR 83.8 68 59% 87 29.85 0.0
30 11:35 SW 10 10.00 Fair CLR 82.8 66.6 58% 85 29.87 0.0
30 11:15 SW 9 10.00 Fair CLR 82.6 65.8 57% 85 29.86 0.0
30 10:55 W 9 10.00 Fair CLR 81.9 65.7 58% 84 29.84 0.0
30 10:35 W 9 10.00 Fair CLR 81.3 64.9 58% 83 29.84 0.0
30 10:15 W 7 10.00 Fair CLR 79 65.8 64% 81 29.83 0.0
30 09:55 W 7 10.00 Fair CLR 79 65.3 63% 81 29.83 0.0
30 09:35 W 6 10.00 Fair CLR 77.4 64.6 65% 79 29.83 0.0
Date Time (cdt) Wind (mph) Vis. (mi.) Weather Sky Cond. Air Dwpt Max. Min. Relative Humidity Wind Chill (°F) Heat Index (°F) altimeter (in) sea level (mb) 1 hr 3 hr 6 hr
6 hour
Temperature (ºF) Pressure Precipitation (in)